Time;durP1;ratioP1;P1;durP2;ratioP2;P2;SDS_P1;SDS_P2;PMS_P1;PMS_P2;Temp;Humidity;BMP_temperature;BMP_pressure;BME280_temperature;BME280_humidity;BME280_pressure;Samples;Min_cycle;Max_cycle;Signal;HPM_P1;HPM_P2
2022/11/08 00:01:38;;;;;;;4.43;2.03;;;13.80;99.90;;;;;;4993370;28;20182;-68
2022/11/08 00:04:12;;;;;;;11.10;2.40;;;13.90;99.90;;;;;;4993155;28;20215;-68
2022/11/08 00:14:52;;;;;;;5.23;2.20;;;13.80;99.90;;;;;;4997038;28;20229;-69
2022/11/08 00:17:19;;;;;;;4.17;2.20;;;13.80;99.90;;;;;;4996711;28;20199;-69
2022/11/08 00:19:45;;;;;;;4.07;1.87;;;13.80;99.90;;;;;;4996662;28;20174;-68
2022/11/08 00:22:12;;;;;;;3.97;2.30;;;13.80;99.90;;;;;;4996137;28;20211;-68
2022/11/08 00:24:38;;;;;;;6.93;2.10;;;13.80;99.90;;;;;;4996521;28;20186;-68
2022/11/08 00:27:06;;;;;;;5.57;1.97;;;13.80;99.90;;;;;;4996533;28;20665;-68
2022/11/08 00:29:35;;;;;;;4.57;1.80;;;13.80;99.90;;;;;;4996242;28;20187;-69
2022/11/08 00:32:05;;;;;;;5.10;2.23;;;13.80;99.90;;;;;;4996318;28;20219;-68
2022/11/08 00:34:32;;;;;;;5.70;2.30;;;13.80;99.90;;;;;;4996267;28;20183;-69
2022/11/08 00:36:58;;;;;;;8.43;1.90;;;13.80;99.90;;;;;;4996115;28;20203;-68
2022/11/08 00:39:23;;;;;;;5.90;1.73;;;13.70;99.90;;;;;;4996391;28;20210;-68
2022/11/08 00:41:49;;;;;;;7.80;2.20;;;13.80;99.90;;;;;;4994853;28;20180;-68
2022/11/08 00:44:14;;;;;;;8.10;1.97;;;13.70;99.90;;;;;;4996160;28;20214;-68
2022/11/08 00:46:40;;;;;;;6.30;2.40;;;13.70;99.90;;;;;;4996269;28;20283;-68
2022/11/08 00:49:07;;;;;;;3.60;1.93;;;13.70;99.90;;;;;;4996205;28;20218;-68
2022/11/08 00:51:33;;;;;;;3.97;1.60;;;13.70;99.90;;;;;;4995570;28;20673;-68
2022/11/08 00:53:59;;;;;;;5.87;1.90;;;13.70;99.90;;;;;;4995975;28;20721;-68
2022/11/08 00:56:24;;;;;;;6.93;2.13;;;13.70;99.90;;;;;;4996085;28;20202;-68
2022/11/08 00:58:50;;;;;;;6.80;2.30;;;13.70;99.90;;;;;;4995947;28;20175;-67
2022/11/08 01:01:18;;;;;;;6.70;2.27;;;13.70;99.90;;;;;;4995967;28;20518;-69
2022/11/08 01:03:45;;;;;;;3.93;2.17;;;13.70;99.90;;;;;;4995825;28;20327;-68
2022/11/08 01:06:12;;;;;;;4.20;2.10;;;13.70;99.90;;;;;;4995414;28;20175;-68
2022/11/08 01:08:38;;;;;;;5.17;2.13;;;13.70;99.90;;;;;;4995842;28;20167;-69
2022/11/08 01:11:07;;;;;;;5.10;2.13;;;13.70;99.90;;;;;;4995568;28;20254;-69
2022/11/08 01:13:34;;;;;;;2.80;2.00;;;13.60;99.90;;;;;;4995713;28;20237;-69
2022/11/08 01:16:15;;;;;;;5.37;1.93;;;13.60;99.90;;;;;;4995284;28;20175;-69
2022/11/08 01:18:41;;;;;;;5.00;2.17;;;13.60;99.90;;;;;;4995534;28;20175;-68
2022/11/08 01:21:07;;;;;;;4.33;2.17;;;13.60;99.90;;;;;;4995552;28;20265;-67
2022/11/08 01:23:33;;;;;;;4.50;2.10;;;13.50;99.90;;;;;;4995337;28;20210;-68
2022/11/08 01:26:08;;;;;;;3.67;2.20;;;13.50;99.90;;;;;;4995401;28;20175;-69
2022/11/08 01:28:34;;;;;;;7.93;2.27;;;13.40;99.90;;;;;;4995414;28;20182;-69
2022/11/08 01:31:21;;;;;;;8.83;2.00;;;13.40;99.90;;;;;;4995269;28;20254;-67
2022/11/08 01:33:47;;;;;;;6.60;2.10;;;13.40;99.90;;;;;;4994916;28;20219;-68
2022/11/08 01:36:15;;;;;;;4.87;2.20;;;13.40;99.90;;;;;;4994803;28;20659;-68
2022/11/08 01:38:41;;;;;;;3.73;2.37;;;13.30;99.90;;;;;;4995163;28;20207;-68
2022/11/08 01:41:07;;;;;;;5.20;2.03;;;13.30;99.90;;;;;;4994950;28;20209;-68
2022/11/08 01:43:39;;;;;;;4.00;2.20;;;13.30;99.90;;;;;;4995021;28;20736;-67
2022/11/08 01:46:17;;;;;;;7.23;2.50;;;13.30;99.90;;;;;;4995004;28;20262;-68
2022/11/08 01:48:56;;;;;;;4.77;2.10;;;13.20;99.90;;;;;;4994555;28;20171;-67
2022/11/08 01:51:36;;;;;;;7.87;2.40;;;13.20;99.90;;;;;;4994979;28;20656;-68
2022/11/08 01:54:08;;;;;;;4.40;2.23;;;13.20;99.90;;;;;;4994915;28;20574;-67
2022/11/08 01:56:35;;;;;;;6.60;2.40;;;13.30;99.90;;;;;;4994908;28;20160;-68
2022/11/08 01:59:02;;;;;;;5.47;2.30;;;13.20;99.90;;;;;;4993509;28;20182;-68
2022/11/08 02:01:28;;;;;;;3.47;2.10;;;13.20;99.90;;;;;;4993401;28;20777;-68
2022/11/08 02:03:54;;;;;;;4.90;2.37;;;13.30;99.90;;;;;;4994215;28;20290;-68
2022/11/08 02:06:19;;;;;;;4.07;2.10;;;13.20;99.90;;;;;;4994846;28;20176;-68
2022/11/08 02:08:45;;;;;;;4.23;2.27;;;13.20;99.90;;;;;;4994488;28;20668;-67
2022/11/08 02:11:14;;;;;;;3.30;2.03;;;13.30;99.90;;;;;;4993077;28;20233;-68
2022/11/08 02:13:40;;;;;;;8.23;2.30;;;13.30;99.90;;;;;;4994194;28;20199;-68
2022/11/08 02:16:11;;;;;;;4.10;2.00;;;13.30;99.90;;;;;;4994448;28;20178;-68
2022/11/08 02:18:38;;;;;;;3.50;2.07;;;13.40;99.90;;;;;;4994066;28;20651;-68
2022/11/08 02:21:19;;;;;;;5.40;1.87;;;13.30;99.90;;;;;;4994313;28;20241;-68
2022/11/08 02:23:44;;;;;;;5.37;2.30;;;13.30;99.90;;;;;;4994203;28;20678;-68
2022/11/08 02:26:10;;;;;;;4.97;2.20;;;13.30;99.90;;;;;;4994060;28;20179;-69
2022/11/08 02:28:47;;;;;;;4.73;2.00;;;13.30;99.90;;;;;;4993309;28;20203;-67
2022/11/08 02:31:16;;;;;;;2.60;1.80;;;13.30;99.90;;;;;;4994249;28;20203;-68
2022/11/08 02:33:42;;;;;;;3.60;2.33;;;13.30;99.90;;;;;;4993434;28;20226;-67
2022/11/08 02:36:11;;;;;;;5.17;2.20;;;13.30;99.90;;;;;;4994118;28;20175;-68
2022/11/08 02:38:45;;;;;;;4.77;1.90;;;13.20;99.90;;;;;;4993914;28;20185;-68
2022/11/08 02:41:11;;;;;;;3.37;1.80;;;13.30;99.90;;;;;;4994154;28;20182;-66
2022/11/08 02:43:36;;;;;;;6.13;1.70;;;13.30;99.90;;;;;;4993949;28;20218;-68
2022/11/08 02:46:02;;;;;;;3.80;1.90;;;13.20;99.90;;;;;;4994000;28;20202;-67
2022/11/08 02:48:28;;;;;;;3.63;2.00;;;13.20;99.90;;;;;;4992034;28;20579;-68
2022/11/08 02:50:53;;;;;;;3.57;1.83;;;13.20;99.90;;;;;;4993796;28;20179;-68
2022/11/08 02:53:19;;;;;;;3.83;2.20;;;13.10;99.90;;;;;;4992505;28;20198;-67
2022/11/08 02:55:45;;;;;;;5.10;1.80;;;13.10;99.90;;;;;;4992605;28;20175;-67
2022/11/08 02:58:10;;;;;;;4.00;1.90;;;13.10;99.90;;;;;;4993860;28;20674;-67
2022/11/08 03:00:37;;;;;;;2.40;1.80;;;13.00;99.90;;;;;;4993953;28;20179;-68
2022/11/08 03:03:05;;;;;;;4.73;2.27;;;13.10;99.90;;;;;;4993497;28;20236;-68
2022/11/08 03:05:31;;;;;;;2.40;1.90;;;13.00;99.90;;;;;;4994029;28;20214;-67
2022/11/08 03:07:57;;;;;;;4.90;2.10;;;13.00;99.90;;;;;;4993776;28;20206;-68
2022/11/08 03:10:24;;;;;;;2.90;1.97;;;13.00;99.90;;;;;;4993575;28;20532;-67
2022/11/08 03:13:00;;;;;;;3.43;2.07;;;13.00;99.90;;;;;;4993748;28;20195;-68
2022/11/08 03:15:27;;;;;;;2.73;1.73;;;13.00;99.90;;;;;;4993658;28;20529;-67
2022/11/08 03:17:52;;;;;;;3.70;1.90;;;13.00;99.90;;;;;;4993489;28;20179;-67
2022/11/08 03:20:18;;;;;;;7.17;2.00;;;12.90;99.90;;;;;;4993342;28;20180;-67
2022/11/08 03:22:44;;;;;;;4.57;1.90;;;12.90;99.90;;;;;;4993444;28;20247;-68
2022/11/08 03:25:10;;;;;;;3.50;1.90;;;12.80;99.90;;;;;;4993562;28;20194;-67
2022/11/08 03:27:36;;;;;;;2.13;1.70;;;12.90;99.90;;;;;;4993603;28;20632;-67
2022/11/08 03:30:02;;;;;;;3.30;1.90;;;12.90;99.90;;;;;;4993660;28;20261;-66
2022/11/08 03:32:27;;;;;;;2.60;1.80;;;12.90;99.90;;;;;;4993023;28;20235;-67
2022/11/08 03:34:53;;;;;;;2.37;1.90;;;12.80;99.90;;;;;;4993395;28;20631;-67
2022/11/08 03:37:19;;;;;;;9.23;2.10;;;12.80;99.90;;;;;;4993379;28;20541;-68
2022/11/08 03:39:44;;;;;;;4.20;1.77;;;12.80;99.90;;;;;;4994494;28;20171;-68
2022/11/08 03:42:13;;;;;;;3.07;1.70;;;12.80;99.90;;;;;;4997028;28;20203;-68
2022/11/08 03:44:41;;;;;;;3.67;1.97;;;12.90;99.90;;;;;;4997253;28;20233;-68
2022/11/08 03:47:08;;;;;;;3.37;1.90;;;12.90;99.90;;;;;;4997026;28;20249;-69
2022/11/08 03:49:33;;;;;;;3.63;1.53;;;12.80;99.90;;;;;;4996993;28;20178;-68
2022/11/08 03:51:59;;;;;;;4.17;1.73;;;12.90;99.90;;;;;;4996965;28;20172;-68
2022/11/08 03:54:25;;;;;;;4.43;1.97;;;12.90;99.90;;;;;;4997020;28;20182;-67
2022/11/08 03:56:50;;;;;;;4.20;2.13;;;12.90;99.90;;;;;;4995695;28;20183;-68
2022/11/08 03:59:16;;;;;;;1.93;1.70;;;12.80;99.90;;;;;;4996790;28;20221;-68
2022/11/08 04:01:42;;;;;;;1.90;1.60;;;12.80;99.90;;;;;;4996912;28;20182;-67
2022/11/08 04:04:07;;;;;;;2.53;1.70;;;12.80;99.90;;;;;;4996635;28;20338;-67
2022/11/08 04:06:33;;;;;;;4.07;1.53;;;12.80;99.90;;;;;;4995651;28;20171;-67
2022/11/08 04:08:59;;;;;;;2.87;1.77;;;12.80;99.90;;;;;;4996861;28;20176;-67
2022/11/08 04:16:56;;;;;;;2.93;1.67;;;12.80;99.90;;;;;;4996659;28;20175;-67
2022/11/08 04:22:07;;;;;;;2.43;1.60;;;12.80;99.90;;;;;;4996575;28;20178;-67
2022/11/08 04:24:32;;;;;;;3.60;1.73;;;12.80;99.90;;;;;;4996366;28;20179;-67
2022/11/08 04:26:58;;;;;;;1.77;1.63;;;12.80;99.90;;;;;;4996207;28;20221;-68
2022/11/08 04:29:24;;;;;;;2.73;1.50;;;12.80;99.90;;;;;;4995968;28;20253;-67
2022/11/08 04:31:49;;;;;;;1.90;1.70;;;12.80;99.90;;;;;;4995994;28;20282;-67
2022/11/08 04:34:15;;;;;;;6.07;1.83;;;12.80;99.90;;;;;;4994780;28;20628;-68
2022/11/08 04:36:40;;;;;;;1.50;1.40;;;12.90;99.90;;;;;;4996280;28;20178;-67
2022/11/08 04:39:06;;;;;;;3.53;1.57;;;12.90;99.90;;;;;;4996171;28;20167;-68
2022/11/08 04:41:32;;;;;;;2.30;1.60;;;12.90;99.90;;;;;;4995712;28;20237;-68
2022/11/08 04:43:57;;;;;;;2.50;1.70;;;12.90;99.90;;;;;;4995513;28;20211;-68
2022/11/08 04:46:27;;;;;;;1.73;1.60;;;12.90;99.90;;;;;;4995649;28;20167;-69
2022/11/08 04:48:55;;;;;;;2.87;1.80;;;12.90;99.90;;;;;;4995874;28;20655;-67
2022/11/08 04:51:25;;;;;;;2.40;1.57;;;12.90;99.90;;;;;;4994768;28;20167;-68
2022/11/08 04:53:51;;;;;;;2.80;1.80;;;13.00;99.90;;;;;;4995359;28;20298;-68
2022/11/08 04:56:18;;;;;;;2.43;1.63;;;13.00;99.90;;;;;;4995475;28;20163;-68
2022/11/08 04:58:53;;;;;;;3.80;2.10;;;12.90;99.90;;;;;;4994159;28;20187;-68
2022/11/08 05:01:21;;;;;;;3.13;1.80;;;12.90;99.90;;;;;;4995407;28;20167;-68
2022/11/08 05:03:48;;;;;;;2.20;1.80;;;13.00;99.90;;;;;;4995049;28;20234;-68
2022/11/08 05:06:20;;;;;;;5.17;1.97;;;13.00;99.90;;;;;;4995098;28;20206;-68
2022/11/08 05:08:56;;;;;;;2.67;1.47;;;13.00;99.90;;;;;;4995486;28;20187;-69
2022/11/08 05:11:27;;;;;;;2.13;1.90;;;13.00;99.90;;;;;;4993794;28;20534;-68
2022/11/08 05:13:53;;;;;;;1.90;1.80;;;13.00;99.90;;;;;;4994966;28;20195;-68
2022/11/08 05:16:24;;;;;;;3.07;1.93;;;13.00;99.90;;;;;;4995382;28;20176;-67
2022/11/08 05:18:50;;;;;;;5.33;1.53;;;13.00;99.90;;;;;;4994276;28;20181;-68
2022/11/08 05:24:04;;;;;;;3.03;1.83;;;13.00;99.90;;;;;;4995333;28;20246;-68
2022/11/08 05:26:33;;;;;;;2.40;1.60;;;13.10;99.90;;;;;;4994471;28;20263;-69
2022/11/08 05:28:58;;;;;;;3.00;1.37;;;13.00;99.90;;;;;;4994823;28;20233;-68
2022/11/08 05:31:24;;;;;;;3.07;1.87;;;13.00;99.90;;;;;;4994345;28;20179;-69
2022/11/08 05:33:51;;;;;;;1.70;1.40;;;13.00;99.90;;;;;;4975220;28;20180;-68
2022/11/08 05:36:17;;;;;;;1.87;1.60;;;13.00;99.90;;;;;;4974977;28;20240;-68
2022/11/08 05:38:43;;;;;;;1.70;1.60;;;13.10;99.90;;;;;;4975114;28;20223;-68
2022/11/08 05:41:17;;;;;;;3.20;1.73;;;13.00;99.90;;;;;;4974517;28;20191;-68
2022/11/08 05:43:45;;;;;;;2.10;1.90;;;13.00;99.90;;;;;;4974646;28;20216;-68
2022/11/08 05:46:11;;;;;;;2.37;1.70;;;13.00;99.90;;;;;;4975187;28;20164;-68
2022/11/08 05:48:36;;;;;;;2.37;1.80;;;13.00;99.90;;;;;;4974963;28;20683;-69
2022/11/08 05:51:02;;;;;;;3.93;2.10;;;13.00;99.90;;;;;;4974828;28;20180;-68
2022/11/08 05:53:28;;;;;;;2.10;1.90;;;12.90;99.90;;;;;;4974562;28;20195;-68
2022/11/08 05:55:59;;;;;;;3.17;1.67;;;12.90;99.90;;;;;;4974793;28;20176;-68
2022/11/08 05:58:28;;;;;;;2.20;1.70;;;12.90;99.90;;;;;;4974688;28;20183;-69
2022/11/08 06:01:11;;;;;;;2.83;1.80;;;13.00;99.90;;;;;;4974388;28;20179;-68
2022/11/08 06:03:40;;;;;;;3.70;1.87;;;13.00;99.90;;;;;;4974534;28;20302;-68
2022/11/08 06:06:14;;;;;;;2.60;1.93;;;13.00;99.90;;;;;;4974421;28;20175;-68
2022/11/08 06:08:41;;;;;;;1.90;1.80;;;13.00;99.90;;;;;;4974616;28;20179;-68
2022/11/08 06:11:09;;;;;;;3.80;2.07;;;13.10;99.90;;;;;;4973630;28;20172;-68
2022/11/08 06:13:44;;;;;;;6.20;2.13;;;13.00;99.90;;;;;;4974049;28;20195;-68
2022/11/08 06:16:12;;;;;;;5.67;2.23;;;13.10;99.90;;;;;;4974301;28;20227;-68
2022/11/08 06:18:38;;;;;;;8.07;2.20;;;13.10;99.90;;;;;;4974019;28;20209;-69
2022/11/08 06:21:06;;;;;;;2.73;2.07;;;13.10;99.90;;;;;;4973950;28;20195;-68
2022/11/08 06:23:31;;;;;;;3.93;1.83;;;13.10;99.90;;;;;;4973511;28;20672;-68
2022/11/08 06:25:57;;;;;;;5.07;2.00;;;13.10;99.90;;;;;;4973378;28;20171;-69
2022/11/08 06:28:23;;;;;;;4.63;2.47;;;13.10;99.90;;;;;;4973685;28;20203;-69
2022/11/08 06:30:49;;;;;;;4.03;1.83;;;13.10;99.90;;;;;;4973629;28;20266;-69
2022/11/08 06:33:15;;;;;;;4.40;1.83;;;13.10;99.90;;;;;;4988301;28;20227;-69
2022/11/08 06:35:41;;;;;;;2.77;1.77;;;13.10;99.90;;;;;;4993574;28;20175;-69
2022/11/08 06:38:07;;;;;;;5.47;2.10;;;13.10;99.90;;;;;;4993189;28;20186;-69
2022/11/08 06:40:32;;;;;;;4.47;1.90;;;13.10;99.90;;;;;;4991667;28;20176;-68
2022/11/08 06:42:59;;;;;;;4.23;2.20;;;13.10;99.90;;;;;;4992456;28;20590;-68
2022/11/08 06:45:25;;;;;;;3.13;2.00;;;13.10;99.90;;;;;;4993035;28;20175;-70
2022/11/08 06:47:58;;;;;;;4.07;2.17;;;13.10;99.90;;;;;;4991617;28;20635;-68
2022/11/08 06:50:24;;;;;;;4.17;2.20;;;13.10;99.90;;;;;;4992525;28;20199;-70
2022/11/08 06:52:58;;;;;;;5.87;2.10;;;13.10;99.90;;;;;;4992239;28;20179;-69
2022/11/08 06:55:33;;;;;;;5.03;2.00;;;13.10;99.90;;;;;;4991976;28;20643;-69
2022/11/08 06:57:59;;;;;;;2.60;2.23;;;13.10;99.90;;;;;;4992762;28;20351;-70
2022/11/08 07:00:25;;;;;;;7.83;2.30;;;13.20;99.90;;;;;;4991879;28;20274;-70
2022/11/08 07:02:52;;;;;;;6.03;2.50;;;13.30;99.90;;;;;;4992497;28;20293;-70
2022/11/08 07:05:18;;;;;;;7.13;2.10;;;13.20;99.90;;;;;;4992097;28;20179;-69
2022/11/08 07:07:44;;;;;;;9.93;2.80;;;13.30;99.90;;;;;;4992879;28;20182;-69
2022/11/08 07:10:12;;;;;;;4.20;2.07;;;13.30;99.90;;;;;;4991797;28;20258;-70
2022/11/08 07:12:38;;;;;;;5.27;2.20;;;13.40;99.90;;;;;;4990798;28;20183;-70
2022/11/08 07:15:05;;;;;;;2.90;2.20;;;13.50;99.90;;;;;;4994449;28;20195;-69
2022/11/08 07:17:30;;;;;;;3.23;2.20;;;13.60;99.90;;;;;;4995931;28;20703;-70
2022/11/08 07:19:56;;;;;;;6.73;2.20;;;13.70;99.90;;;;;;4995917;28;20322;-69
2022/11/08 07:22:21;;;;;;;1.60;1.47;;;13.70;99.90;;;;;;4996533;28;20203;-69
2022/11/08 07:24:47;;;;;;;3.13;2.13;;;13.60;99.90;;;;;;4994835;28;20195;-68
2022/11/08 07:27:15;;;;;;;5.87;2.60;;;13.60;99.90;;;;;;4996019;28;20189;-70
2022/11/08 07:29:41;;;;;;;3.10;2.03;;;13.60;99.90;;;;;;4994252;28;20183;-70
2022/11/08 07:32:10;;;;;;;4.50;2.47;;;13.70;99.90;;;;;;4995742;28;20223;-69
2022/11/08 07:34:36;;;;;;;5.83;2.20;;;13.70;99.90;;;;;;4995578;28;20183;-69
2022/11/08 07:37:01;;;;;;;5.43;2.30;;;13.80;99.90;;;;;;4995674;28;20214;-69
2022/11/08 07:39:27;;;;;;;6.10;2.97;;;13.80;99.90;;;;;;4995959;28;20211;-68
2022/11/08 07:41:52;;;;;;;5.63;2.70;;;13.80;99.90;;;;;;4996552;28;20926;-69
2022/11/08 07:44:18;;;;;;;5.30;2.10;;;13.90;99.90;;;;;;4995418;28;20246;-69
2022/11/08 07:46:44;;;;;;;4.80;2.10;;;14.00;99.90;;;;;;4995933;28;20631;-69
2022/11/08 07:49:09;;;;;;;6.17;2.73;;;13.90;99.90;;;;;;4995766;28;20187;-70
2022/11/08 07:51:35;;;;;;;3.47;2.20;;;14.00;99.90;;;;;;4994502;28;20187;-70
2022/11/08 07:54:00;;;;;;;6.53;2.40;;;14.10;99.90;;;;;;4995448;28;20175;-70
2022/11/08 07:56:26;;;;;;;7.27;2.10;;;14.30;99.90;;;;;;4995338;28;20185;-70
2022/11/08 07:58:52;;;;;;;5.37;2.40;;;14.40;99.90;;;;;;4995897;28;20580;-70
2022/11/08 08:01:18;;;;;;;2.90;1.90;;;14.40;99.90;;;;;;4995786;28;20179;-69
2022/11/08 08:03:44;;;;;;;3.43;2.20;;;14.50;99.90;;;;;;4991588;28;20503;-70
2022/11/08 08:06:09;;;;;;;3.30;1.93;;;14.60;99.90;;;;;;4982075;28;20640;-70
2022/11/08 08:08:35;;;;;;;4.70;2.10;;;14.60;99.90;;;;;;4975563;28;20223;-67
2022/11/08 08:11:02;;;;;;;3.53;2.27;;;14.60;99.90;;;;;;4972997;28;20515;-67
2022/11/08 08:13:30;;;;;;;3.43;2.17;;;14.60;99.90;;;;;;4985205;28;20291;-67
2022/11/08 08:15:58;;;;;;;3.93;2.30;;;14.60;99.90;;;;;;4975947;28;20662;-66
2022/11/08 08:18:24;;;;;;;3.77;2.00;;;14.70;99.90;;;;;;4973820;28;20192;-66
2022/11/08 08:20:49;;;;;;;4.37;2.57;;;14.80;99.90;;;;;;4991170;28;20296;-67
2022/11/08 08:23:15;;;;;;;5.00;2.33;;;15.00;99.90;;;;;;4993121;28;20770;-68
2022/11/08 08:25:40;;;;;;;2.63;2.37;;;15.10;99.90;;;;;;4995195;28;20175;-69
2022/11/08 08:28:06;;;;;;;3.77;2.10;;;15.40;99.90;;;;;;4997628;28;20233;-68
2022/11/08 08:30:32;;;;;;;4.13;2.27;;;15.60;99.90;;;;;;5000515;28;20706;-67
2022/11/08 08:33:02;;;;;;;3.57;2.50;;;15.60;99.90;;;;;;4995040;28;20226;-67
2022/11/08 08:35:30;;;;;;;3.67;2.13;;;15.50;99.90;;;;;;4985617;28;20270;-68
2022/11/08 08:37:59;;;;;;;3.83;2.10;;;15.50;99.90;;;;;;5005028;28;20222;-70
2022/11/08 08:40:27;;;;;;;3.47;2.10;;;15.50;99.90;;;;;;5004870;28;20229;-68
2022/11/08 08:42:53;;;;;;;5.33;2.00;;;15.60;99.90;;;;;;4977911;28;20310;-69
2022/11/08 08:45:19;;;;;;;6.53;2.70;;;15.70;99.90;;;;;;4995804;28;20667;-67
2022/11/08 08:47:50;;;;;;;4.47;2.23;;;16.10;99.90;;;;;;5009439;28;20178;-70
2022/11/08 08:50:15;;;;;;;3.47;2.20;;;16.50;99.90;;;;;;4989742;28;20253;-69
2022/11/08 08:52:47;;;;;;;3.57;2.50;;;16.80;99.90;;;;;;5003755;28;20263;-67
2022/11/08 08:55:13;;;;;;;4.23;2.10;;;16.80;99.90;;;;;;4998658;28;20179;-68
2022/11/08 08:57:42;;;;;;;5.70;2.57;;;17.00;99.90;;;;;;5004200;28;20185;-69
2022/11/08 09:00:08;;;;;;;6.47;2.70;;;17.40;99.90;;;;;;4999618;28;20175;-68
2022/11/08 09:02:33;;;;;;;5.43;3.00;;;17.30;99.90;;;;;;4986680;28;20573;-69
2022/11/08 09:04:59;;;;;;;3.17;2.73;;;17.30;99.90;;;;;;4998683;28;20202;-71
2022/11/08 09:07:25;;;;;;;7.60;2.50;;;17.50;99.90;;;;;;5008765;28;20179;-71
2022/11/08 09:09:50;;;;;;;3.28;2.22;;;17.90;99.90;;;;;;4996966;28;20194;-70
2022/11/08 09:12:16;;;;;;;5.90;2.45;;;18.30;99.30;;;;;;5008136;28;20274;-68
2022/11/08 09:14:41;;;;;;;4.28;2.03;;;18.40;98.50;;;;;;4993126;28;20635;-67
2022/11/08 09:17:07;;;;;;;5.10;2.50;;;18.40;98.40;;;;;;5006493;28;20489;-68
2022/11/08 09:19:32;;;;;;;4.18;1.92;;;17.90;99.40;;;;;;4995572;28;20210;-67
2022/11/08 09:21:58;;;;;;;5.90;2.40;;;17.50;99.90;;;;;;5003825;28;20171;-67
2022/11/08 09:24:23;;;;;;;2.43;2.17;;;17.50;99.90;;;;;;5006564;28;20207;-67
2022/11/08 09:26:49;;;;;;;4.03;2.20;;;17.20;99.90;;;;;;4999472;28;20166;-67
2022/11/08 09:29:15;;;;;;;2.33;2.00;;;16.90;99.90;;;;;;5007226;28;20643;-67
2022/11/08 09:31:40;;;;;;;4.03;2.00;;;16.80;99.90;;;;;;4991835;28;20163;-67
2022/11/08 09:34:06;;;;;;;4.63;2.40;;;16.60;99.90;;;;;;4997313;28;20226;-67
2022/11/08 09:36:31;;;;;;;5.10;2.53;;;16.60;99.90;;;;;;5001369;28;20674;-66
2022/11/08 09:38:57;;;;;;;7.93;2.50;;;16.60;99.90;;;;;;4993204;28;20183;-67
2022/11/08 09:41:49;;;;;;;4.40;2.03;;;16.60;99.90;;;;;;5000960;28;20175;-67
2022/11/08 09:44:30;;;;;;;4.13;2.30;;;16.60;99.90;;;;;;4984932;28;20971;-68
2022/11/08 09:47:01;;;;;;;3.80;2.40;;;16.60;99.90;;;;;;4995497;28;20207;-68
2022/11/08 09:49:40;;;;;;;8.40;2.87;;;16.50;99.90;;;;;;4995353;28;20237;-67
2022/11/08 09:52:17;;;;;;;7.27;2.60;;;16.50;99.90;;;;;;4998568;28;20319;-68
2022/11/08 09:54:46;;;;;;;5.03;2.40;;;16.50;99.90;;;;;;5001908;28;20186;-67
2022/11/08 09:57:42;;;;;;;7.23;2.30;;;16.50;99.90;;;;;;4999402;28;20239;-67
2022/11/08 10:00:11;;;;;;;4.23;2.30;;;16.60;99.90;;;;;;5003085;28;20167;-68
2022/11/08 10:02:38;;;;;;;6.13;2.40;;;16.50;99.90;;;;;;4990315;28;20238;-67
2022/11/08 10:05:14;;;;;;;2.70;2.20;;;16.50;99.90;;;;;;4999960;28;20164;-67
2022/11/08 10:08:06;;;;;;;5.20;2.57;;;16.40;99.90;;;;;;4977817;28;20176;-67
2022/11/08 10:10:39;;;;;;;3.50;2.03;;;16.40;99.90;;;;;;4989298;28;20278;-68
2022/11/08 10:13:10;;;;;;;3.53;2.30;;;16.30;99.90;;;;;;4999356;28;20203;-68
2022/11/08 10:15:47;;;;;;;6.20;2.40;;;16.20;99.90;;;;;;4993451;28;20716;-67
2022/11/08 10:18:24;;;;;;;5.47;2.57;;;16.30;99.90;;;;;;4994434;28;20182;-67
2022/11/08 10:21:01;;;;;;;2.57;2.00;;;16.40;99.90;;;;;;5001707;28;20175;-68
2022/11/08 10:23:39;;;;;;;4.17;2.27;;;16.40;99.90;;;;;;4991307;28;20211;-66
2022/11/08 10:26:13;;;;;;;7.40;2.60;;;16.50;99.90;;;;;;5007067;28;20199;-66
2022/11/08 10:28:53;;;;;;;5.57;2.50;;;16.60;99.90;;;;;;5001480;28;20205;-66
2022/11/08 10:31:19;;;;;;;6.40;2.83;;;16.70;99.90;;;;;;4996437;28;20171;-67
2022/11/08 10:33:54;;;;;;;3.67;2.23;;;16.70;99.90;;;;;;5007733;28;20295;-67
2022/11/08 10:36:39;;;;;;;2.57;2.27;;;16.80;99.90;;;;;;4997936;28;20174;-66
2022/11/08 10:39:10;;;;;;;4.47;2.27;;;16.70;99.90;;;;;;5000171;28;20179;-67
2022/11/08 10:41:54;;;;;;;3.10;2.00;;;16.80;99.90;;;;;;5007178;28;20209;-68
2022/11/08 10:44:24;;;;;;;5.20;2.60;;;16.80;99.90;;;;;;4996595;28;20225;-68
2022/11/08 10:46:55;;;;;;;2.37;2.13;;;16.90;99.90;;;;;;5001592;28;20179;-67
2022/11/08 10:49:25;;;;;;;7.60;2.70;;;16.80;99.90;;;;;;5004784;28;20269;-67
2022/11/08 10:51:56;;;;;;;8.23;2.67;;;16.90;99.90;;;;;;4995171;28;20489;-68
2022/11/08 10:54:41;;;;;;;5.87;2.53;;;17.20;99.90;;;;;;5005253;28;20210;-68
2022/11/08 10:57:09;;;;;;;3.90;2.40;;;17.60;99.90;;;;;;5004789;28;20253;-68
2022/11/08 10:59:35;;;;;;;3.70;2.28;;;18.00;99.90;;;;;;4995346;28;20179;-69
2022/11/08 11:02:01;;;;;;;4.35;2.30;;;18.40;99.90;;;;;;5006322;28;20198;-70
2022/11/08 11:04:30;;;;;;;5.45;2.50;;;19.20;99.80;;;;;;4990517;28;20254;-70
2022/11/08 11:07:23;;;;;;;6.60;2.88;;;19.50;99.40;;;;;;4990795;28;20658;-70
2022/11/08 11:09:48;;;;;;;3.53;2.50;;;19.60;98.60;;;;;;5004928;28;20186;-68
2022/11/08 11:12:14;;;;;;;3.28;2.60;;;19.50;99.10;;;;;;4996523;28;20265;-69
2022/11/08 11:14:39;;;;;;;3.95;2.60;;;19.30;99.50;;;;;;5002729;28;20270;-68
2022/11/08 11:17:11;;;;;;;6.30;2.50;;;19.20;99.50;;;;;;4986123;28;20179;-67
2022/11/08 11:19:37;;;;;;;2.47;2.17;;;18.90;99.90;;;;;;4981993;28;20734;-67
2022/11/08 11:22:07;;;;;;;3.88;2.58;;;18.60;99.90;;;;;;4992333;28;20266;-68
2022/11/08 11:24:35;;;;;;;5.07;2.10;;;18.50;99.90;;;;;;5003276;28;20690;-69
2022/11/08 11:27:06;;;;;;;3.63;2.40;;;18.30;99.90;;;;;;5003283;28;20174;-68
2022/11/08 11:29:37;;;;;;;3.67;2.30;;;18.00;99.90;;;;;;4995228;28;20171;-68
2022/11/08 11:32:32;;;;;;;4.70;2.60;;;17.80;99.90;;;;;;4979360;28;20214;-67
2022/11/08 11:35:12;;;;;;;4.17;2.60;;;17.90;99.90;;;;;;4989427;28;20199;-68
2022/11/08 11:37:45;;;;;;;5.57;2.43;;;17.90;99.90;;;;;;4991579;28;20182;-67
2022/11/08 11:40:32;;;;;;;3.13;2.07;;;17.70;99.90;;;;;;4990283;28;20180;-67
2022/11/08 11:43:46;;;;;;;4.30;2.50;;;17.60;99.90;;;;;;5000656;28;20881;-66
2022/11/08 11:46:36;;;;;;;3.30;2.03;;;17.50;99.90;;;;;;4936327;29;20669;-68
2022/11/08 11:49:12;;;;;;;5.27;2.40;;;17.30;99.90;;;;;;4943778;29;20184;-68
2022/11/08 11:51:40;;;;;;;3.27;2.30;;;17.30;99.90;;;;;;4946462;29;20279;-67
2022/11/08 11:54:07;;;;;;;6.03;2.50;;;17.30;99.90;;;;;;4935337;29;20185;-68
2022/11/08 11:56:58;;;;;;;5.40;2.30;;;17.40;99.90;;;;;;4943504;29;20717;-67
2022/11/08 11:59:48;;;;;;;19.17;12.47;;;17.50;99.90;;;;;;4945306;29;20193;-68
2022/11/08 12:02:47;;;;;;;6.17;3.07;;;17.50;99.90;;;;;;4939682;29;20176;-69
2022/11/08 12:05:30;;;;;;;4.37;2.60;;;17.50;99.90;;;;;;4952241;29;20189;-68
2022/11/08 12:08:14;;;;;;;3.47;2.20;;;17.50;99.90;;;;;;4939641;29;20192;-68
2022/11/08 12:11:10;;;;;;;4.23;2.80;;;17.60;99.90;;;;;;4942654;29;20285;-69
2022/11/08 12:13:42;;;;;;;5.00;2.27;;;17.60;99.90;;;;;;4918100;29;20202;-68
2022/11/08 12:16:38;;;;;;;5.57;2.20;;;17.50;99.90;;;;;;4931000;29;20600;-68
2022/11/08 12:19:41;;;;;;;6.50;2.70;;;17.50;99.90;;;;;;4927140;29;20204;-67
2022/11/08 12:22:20;;;;;;;9.73;2.53;;;17.70;99.90;;;;;;4941232;28;20170;-66
2022/11/08 12:25:18;;;;;;;5.40;2.43;;;17.70;99.90;;;;;;5002612;28;20187;-69
2022/11/08 12:28:21;;;;;;;4.17;2.47;;;17.60;99.90;;;;;;5004142;28;20198;-67
2022/11/08 12:30:51;;;;;;;9.27;3.07;;;17.60;99.90;;;;;;5005064;28;20193;-69
2022/11/08 12:33:19;;;;;;;5.83;2.60;;;17.70;99.90;;;;;;5000182;28;20254;-67
2022/11/08 12:36:00;;;;;;;5.57;2.50;;;17.90;99.90;;;;;;4994917;28;20179;-67
2022/11/08 12:38:54;;;;;;;6.87;2.23;;;17.90;99.90;;;;;;5006347;28;20205;-66
2022/11/08 12:41:24;;;;;;;3.07;2.40;;;17.80;99.90;;;;;;4969275;28;20316;-68
2022/11/08 12:44:29;;;;;;;4.53;2.53;;;17.70;99.90;;;;;;4996808;28;20218;-67
2022/11/08 12:47:29;;;;;;;4.03;2.10;;;17.70;99.90;;;;;;4981599;28;20210;-68
2022/11/08 12:50:16;;;;;;;4.60;2.70;;;17.60;99.90;;;;;;5009530;28;20191;-66
2022/11/08 12:53:20;;;;;;;3.83;2.20;;;17.70;99.90;;;;;;5002812;28;20591;-67
2022/11/08 12:55:47;;;;;;;4.63;2.60;;;17.80;99.90;;;;;;4997108;28;20237;-67
2022/11/08 12:58:37;;;;;;;6.87;2.10;;;17.90;99.90;;;;;;4988486;28;20190;-67
2022/11/08 13:01:17;;;;;;;5.23;2.20;;;17.90;99.90;;;;;;5000330;28;20226;-68
2022/11/08 13:03:48;;;;;;;4.67;3.07;;;17.70;99.90;;;;;;5007647;28;20226;-68
2022/11/08 13:06:23;;;;;;;4.37;2.23;;;17.80;99.90;;;;;;4988177;28;20502;-68
2022/11/08 13:09:03;;;;;;;5.97;2.53;;;17.70;99.90;;;;;;4993868;28;20261;-66
2022/11/08 13:11:43;;;;;;;5.13;2.33;;;17.60;99.90;;;;;;4996397;28;20258;-68
2022/11/08 13:14:17;;;;;;;6.23;2.77;;;17.70;99.90;;;;;;4982943;28;20649;-67
2022/11/08 13:17:04;;;;;;;6.77;2.63;;;17.50;99.90;;;;;;4994350;28;20199;-67
2022/11/08 13:19:49;;;;;;;6.53;2.30;;;17.50;99.90;;;;;;5008991;28;20535;-67
2022/11/08 13:22:39;;;;;;;8.17;2.30;;;17.50;99.90;;;;;;4985175;28;20174;-68